Time;durP1;ratioP1;P1;durP2;ratioP2;P2;SDS_P1;SDS_P2;PMS_P1;PMS_P2;Temp;Humidity;BMP_temperature;BMP_pressure;BME280_temperature;BME280_humidity;BME280_pressure;Samples;Min_cycle;Max_cycle;Signal;HPM_P1;HPM_P2
2021/10/17 00:00:22;;;;;;;0.35;0.35;;;11.10;99.90;;;;;;5068757;28;20127;-69
2021/10/17 00:02:48;;;;;;;0.20;0.20;;;11.10;99.90;;;;;;5058113;28;20035;-69
2021/10/17 00:05:15;;;;;;;0.50;0.50;;;11.10;99.90;;;;;;5068815;28;20098;-69
2021/10/17 00:07:42;;;;;;;0.20;0.20;;;11.10;99.90;;;;;;5068694;28;20025;-69
2021/10/17 00:10:10;;;;;;;1.95;0.47;;;11.10;99.90;;;;;;5068264;28;20032;-69
2021/10/17 00:12:36;;;;;;;0.70;0.70;;;11.10;99.90;;;;;;5069024;28;20025;-68
2021/10/17 00:15:05;;;;;;;0.05;0.05;;;11.10;99.90;;;;;;5068519;28;20048;-68
2021/10/17 00:17:30;;;;;;;0.40;0.40;;;11.10;99.90;;;;;;5068384;28;20024;-69
2021/10/17 00:19:56;;;;;;;1.65;0.95;;;11.10;99.90;;;;;;5068546;28;20335;-69
2021/10/17 00:22:21;;;;;;;3.35;1.17;;;11.10;99.90;;;;;;5068078;28;20041;-69
2021/10/17 00:24:46;;;;;;;0.30;0.30;;;11.10;99.90;;;;;;5068547;28;20203;-68
2021/10/17 00:27:12;;;;;;;0.40;0.28;;;11.10;99.90;;;;;;5067971;28;20495;-69
2021/10/17 00:29:38;;;;;;;0.00;0.00;;;11.10;99.90;;;;;;5068483;28;20032;-69
2021/10/17 00:32:04;;;;;;;0.57;0.57;;;11.00;99.90;;;;;;5068475;28;20032;-69
2021/10/17 00:34:29;;;;;;;1.20;0.85;;;11.00;99.90;;;;;;5067436;28;20438;-69
2021/10/17 00:36:55;;;;;;;0.10;0.10;;;11.00;99.90;;;;;;5067857;28;20072;-68
2021/10/17 00:39:20;;;;;;;0.30;0.30;;;11.00;99.90;;;;;;5068845;28;20024;-70
2021/10/17 00:41:46;;;;;;;0.10;0.10;;;11.00;99.90;;;;;;5063073;28;20108;-69
2021/10/17 00:44:20;;;;;;;0.00;0.00;;;11.00;99.90;;;;;;5058404;28;20618;-69
2021/10/17 00:46:46;;;;;;;0.20;0.20;;;11.00;99.90;;;;;;5058281;28;20033;-69
2021/10/17 00:49:11;;;;;;;1.33;0.75;;;11.00;99.90;;;;;;5066195;28;20237;-68
2021/10/17 00:51:37;;;;;;;0.03;0.03;;;11.00;99.90;;;;;;5067961;28;20017;-69
2021/10/17 00:54:03;;;;;;;3.10;1.40;;;11.00;99.90;;;;;;5067748;28;20024;-69
2021/10/17 00:56:28;;;;;;;0.30;0.30;;;10.90;99.90;;;;;;5067702;28;20071;-68
2021/10/17 00:58:53;;;;;;;0.17;0.17;;;10.90;99.90;;;;;;5066088;28;20399;-68
2021/10/17 01:01:19;;;;;;;0.28;0.28;;;10.90;99.90;;;;;;5068306;28;20024;-69
2021/10/17 01:03:44;;;;;;;0.20;0.20;;;10.90;99.90;;;;;;5067754;28;20166;-69
2021/10/17 01:06:12;;;;;;;0.10;0.10;;;10.90;99.90;;;;;;5067385;28;20043;-69
2021/10/17 01:08:39;;;;;;;0.28;0.28;;;10.90;99.90;;;;;;5067939;28;20371;-69
2021/10/17 01:11:04;;;;;;;0.30;0.30;;;10.90;99.90;;;;;;5064394;28;20028;-69
2021/10/17 01:13:30;;;;;;;0.47;0.47;;;10.90;99.90;;;;;;5067396;28;20036;-69
2021/10/17 01:15:56;;;;;;;0.60;0.17;;;10.90;99.90;;;;;;5067068;28;20066;-69
2021/10/17 01:18:23;;;;;;;0.17;0.17;;;10.90;99.90;;;;;;5067732;28;20020;-68
2021/10/17 01:20:50;;;;;;;0.00;0.00;;;10.90;99.90;;;;;;5067652;28;20021;-69
2021/10/17 01:23:18;;;;;;;0.77;0.77;;;10.90;99.90;;;;;;5063731;28;20471;-69
2021/10/17 01:25:43;;;;;;;0.75;0.75;;;10.90;99.90;;;;;;5063932;28;20527;-69
2021/10/17 01:28:09;;;;;;;2.28;0.40;;;10.90;99.90;;;;;;5067018;28;20051;-69
2021/10/17 01:30:35;;;;;;;0.45;0.45;;;10.90;99.90;;;;;;5067506;28;20020;-69
2021/10/17 01:33:01;;;;;;;0.10;0.10;;;10.90;99.90;;;;;;5067021;28;20036;-69
2021/10/17 01:35:26;;;;;;;0.30;0.30;;;10.90;99.90;;;;;;5066085;28;20047;-69
2021/10/17 01:37:52;;;;;;;0.38;0.30;;;10.90;99.90;;;;;;5067229;28;20128;-69
2021/10/17 01:40:17;;;;;;;0.70;0.20;;;10.90;99.90;;;;;;5066989;28;20027;-69
2021/10/17 01:42:43;;;;;;;1.13;1.08;;;10.90;99.90;;;;;;5067120;28;20063;-68
2021/10/17 01:45:09;;;;;;;0.52;0.20;;;10.90;99.90;;;;;;5066410;28;20536;-69
2021/10/17 01:47:34;;;;;;;0.00;0.00;;;10.90;99.90;;;;;;5058458;28;20050;-69
2021/10/17 01:50:00;;;;;;;0.10;0.10;;;10.90;99.90;;;;;;5066545;28;20082;-69
2021/10/17 01:52:26;;;;;;;0.52;0.30;;;10.90;99.90;;;;;;5066590;28;20029;-70
2021/10/17 01:54:51;;;;;;;0.10;0.10;;;10.90;99.90;;;;;;5065350;28;20036;-69
2021/10/17 01:57:17;;;;;;;0.08;0.08;;;10.90;99.90;;;;;;5066330;28;20017;-70
2021/10/17 01:59:42;;;;;;;0.08;0.08;;;10.90;99.90;;;;;;5066566;28;20024;-70
2021/10/17 02:02:08;;;;;;;0.65;0.65;;;10.90;99.50;;;;;;5065725;28;20448;-70
2021/10/17 02:04:33;;;;;;;1.27;0.43;;;10.80;99.70;;;;;;5066490;28;20103;-68
2021/10/17 02:06:59;;;;;;;0.00;0.00;;;10.80;99.20;;;;;;5067285;28;20031;-69
2021/10/17 02:09:25;;;;;;;0.13;0.13;;;10.80;98.90;;;;;;5066761;28;20031;-69
2021/10/17 02:11:51;;;;;;;0.30;0.30;;;10.80;99.10;;;;;;5066750;28;20383;-69
2021/10/17 02:14:16;;;;;;;2.88;0.47;;;10.80;99.60;;;;;;5060770;28;20063;-69
2021/10/17 02:16:42;;;;;;;0.00;0.00;;;10.80;99.40;;;;;;5066371;28;20273;-70
2021/10/17 02:19:07;;;;;;;2.40;1.08;;;10.80;99.10;;;;;;5065341;28;20028;-69
2021/10/17 02:21:33;;;;;;;0.20;0.20;;;10.80;99.40;;;;;;5059941;28;20036;-69
2021/10/17 02:23:59;;;;;;;0.10;0.10;;;10.80;99.40;;;;;;5061406;28;20055;-69
2021/10/17 02:26:24;;;;;;;0.35;0.35;;;10.80;99.50;;;;;;5067080;28;20032;-69
2021/10/17 02:28:50;;;;;;;0.00;0.00;;;10.80;99.90;;;;;;5066460;28;20040;-69
2021/10/17 02:31:15;;;;;;;0.13;0.13;;;10.80;99.90;;;;;;5067070;28;20107;-70
2021/10/17 02:33:41;;;;;;;0.25;0.25;;;10.70;99.90;;;;;;5066926;28;20039;-70
2021/10/17 02:36:06;;;;;;;0.40;0.32;;;10.70;99.90;;;;;;5066586;28;20441;-70
2021/10/17 02:38:32;;;;;;;0.17;0.13;;;10.70;99.90;;;;;;5066142;28;20099;-70
2021/10/17 02:40:57;;;;;;;1.23;1.13;;;10.70;99.90;;;;;;5065031;28;20020;-70
2021/10/17 02:43:26;;;;;;;0.05;0.05;;;10.70;99.70;;;;;;5066120;28;20032;-70
2021/10/17 02:45:51;;;;;;;1.10;0.47;;;10.70;99.90;;;;;;5055953;28;20453;-70
2021/10/17 02:48:17;;;;;;;0.00;0.00;;;10.70;99.60;;;;;;5065890;28;20037;-69
2021/10/17 02:50:42;;;;;;;0.00;0.00;;;10.70;99.90;;;;;;5066026;28;20024;-69
2021/10/17 02:53:08;;;;;;;0.15;0.15;;;10.70;99.80;;;;;;5064028;28;20051;-69
2021/10/17 02:55:33;;;;;;;0.00;0.00;;;10.70;98.90;;;;;;5054744;28;20020;-69
2021/10/17 02:57:59;;;;;;;0.10;0.10;;;10.80;98.90;;;;;;5065799;28;20028;-70
2021/10/17 03:00:24;;;;;;;0.55;0.55;;;10.80;98.30;;;;;;5065834;28;20021;-70
2021/10/17 03:02:50;;;;;;;0.00;0.00;;;10.70;98.00;;;;;;5066363;28;20101;-70
2021/10/17 03:05:15;;;;;;;3.00;0.40;;;10.70;98.10;;;;;;5064927;28;20032;-70
2021/10/17 03:07:41;;;;;;;0.00;0.00;;;10.70;98.20;;;;;;5065828;28;20374;-69
2021/10/17 03:10:07;;;;;;;1.98;1.13;;;10.70;98.10;;;;;;5065994;28;20028;-70
2021/10/17 03:12:33;;;;;;;0.08;0.08;;;10.70;98.00;;;;;;5065304;28;20081;-70
2021/10/17 03:14:58;;;;;;;0.10;0.10;;;10.70;98.10;;;;;;5069467;28;20020;-70
2021/10/17 03:17:25;;;;;;;1.05;0.47;;;10.70;97.40;;;;;;5069517;28;20375;-70
2021/10/17 03:19:51;;;;;;;0.00;0.00;;;10.70;97.60;;;;;;5070206;28;20073;-69
2021/10/17 03:22:16;;;;;;;0.20;0.20;;;10.60;97.20;;;;;;5069259;28;20522;-70
2021/10/17 03:24:42;;;;;;;0.20;0.20;;;10.60;97.60;;;;;;5061890;28;20241;-70
2021/10/17 03:27:07;;;;;;;0.08;0.08;;;10.60;97.50;;;;;;5069912;28;20066;-70
2021/10/17 03:29:33;;;;;;;1.25;0.98;;;10.50;97.70;;;;;;5069744;28;20099;-70
2021/10/17 03:31:58;;;;;;;1.02;0.60;;;10.40;98.30;;;;;;5069246;28;20653;-70
2021/10/17 03:34:24;;;;;;;0.30;0.30;;;10.30;98.10;;;;;;5060466;28;20021;-69
2021/10/17 03:36:49;;;;;;;0.40;0.40;;;10.30;98.00;;;;;;5071036;28;20028;-70
2021/10/17 03:39:14;;;;;;;0.10;0.10;;;10.30;98.30;;;;;;5070512;28;20027;-69
2021/10/17 03:41:40;;;;;;;0.20;0.20;;;10.20;97.80;;;;;;5069947;28;20158;-69
2021/10/17 03:44:06;;;;;;;0.00;0.00;;;10.20;98.10;;;;;;5069649;28;20028;-69
2021/10/17 03:46:31;;;;;;;1.33;0.40;;;10.10;98.20;;;;;;5069106;28;20046;-70
2021/10/17 03:48:56;;;;;;;0.30;0.20;;;10.10;98.20;;;;;;5069017;28;20208;-69
2021/10/17 03:51:22;;;;;;;0.00;0.00;;;10.00;97.90;;;;;;5069608;28;20017;-69
2021/10/17 03:53:48;;;;;;;2.00;0.57;;;10.00;98.40;;;;;;5069274;28;20446;-69
2021/10/17 03:56:13;;;;;;;0.10;0.10;;;9.90;97.90;;;;;;5057612;28;20117;-70
2021/10/17 03:58:39;;;;;;;0.35;0.35;;;9.90;98.60;;;;;;5069064;28;20540;-70
2021/10/17 04:01:04;;;;;;;0.15;0.15;;;9.80;99.40;;;;;;5069256;28;20012;-69
2021/10/17 04:03:29;;;;;;;0.25;0.22;;;9.70;99.70;;;;;;5065111;28;20101;-69
2021/10/17 04:05:55;;;;;;;0.45;0.45;;;9.70;99.90;;;;;;5068399;28;20321;-70
2021/10/17 04:08:20;;;;;;;1.27;0.98;;;9.60;99.90;;;;;;5065577;28;20029;-69
2021/10/17 04:10:46;;;;;;;0.03;0.03;;;9.50;99.90;;;;;;5068634;28;20032;-70
2021/10/17 04:13:12;;;;;;;0.88;0.68;;;9.40;99.90;;;;;;5068542;28;20226;-70
2021/10/17 04:15:37;;;;;;;0.10;0.10;;;9.30;99.90;;;;;;5068945;28;20082;-69
2021/10/17 04:18:06;;;;;;;0.13;0.13;;;9.30;99.90;;;;;;5068722;28;20047;-70
2021/10/17 04:20:31;;;;;;;0.00;0.00;;;9.20;99.90;;;;;;5067871;28;20035;-69
2021/10/17 04:22:58;;;;;;;0.00;0.00;;;9.20;99.90;;;;;;5068321;28;20048;-70
2021/10/17 04:25:23;;;;;;;0.05;0.05;;;9.10;99.90;;;;;;5067687;28;20123;-69
2021/10/17 04:27:50;;;;;;;0.30;0.25;;;9.10;99.90;;;;;;5068850;28;20048;-70
2021/10/17 04:30:15;;;;;;;0.08;0.08;;;9.00;99.90;;;;;;5068270;28;20383;-70
2021/10/17 04:32:41;;;;;;;0.10;0.10;;;9.00;99.90;;;;;;5067359;28;20111;-70
2021/10/17 04:35:08;;;;;;;1.70;1.35;;;8.90;99.90;;;;;;5068387;28;20060;-70
2021/10/17 04:37:35;;;;;;;0.10;0.10;;;8.90;99.90;;;;;;5068821;28;20093;-70
2021/10/17 04:40:02;;;;;;;3.65;0.73;;;8.90;99.90;;;;;;5067963;28;20029;-70
2021/10/17 04:42:28;;;;;;;0.08;0.08;;;8.90;99.90;;;;;;5067982;28;20048;-70
2021/10/17 04:44:54;;;;;;;0.20;0.15;;;8.90;99.90;;;;;;5066588;28;20032;-69
2021/10/17 04:47:19;;;;;;;0.55;0.55;;;8.80;99.90;;;;;;5068574;28;20078;-69
2021/10/17 04:49:44;;;;;;;0.00;0.00;;;8.80;99.90;;;;;;5067970;28;20020;-69
2021/10/17 04:52:10;;;;;;;0.30;0.30;;;8.70;99.90;;;;;;5067610;28;20029;-69
2021/10/17 04:54:35;;;;;;;0.08;0.08;;;8.60;99.90;;;;;;5068343;28;20418;-70
2021/10/17 04:57:01;;;;;;;0.43;0.28;;;8.60;99.90;;;;;;5066222;28;20108;-70
2021/10/17 04:59:26;;;;;;;0.25;0.25;;;8.50;99.90;;;;;;5061587;28;20241;-69
2021/10/17 05:01:52;;;;;;;0.00;0.00;;;8.40;99.90;;;;;;5068256;28;20463;-70
2021/10/17 05:04:18;;;;;;;0.10;0.10;;;8.40;99.90;;;;;;5067467;28;20168;-70
2021/10/17 05:06:44;;;;;;;0.10;0.10;;;8.30;99.90;;;;;;5067815;28;20017;-69
2021/10/17 05:09:09;;;;;;;0.73;0.30;;;8.30;99.90;;;;;;5067302;28;20387;-69
2021/10/17 05:11:35;;;;;;;0.20;0.20;;;8.30;99.90;;;;;;5057070;28;20369;-70
2021/10/17 05:14:00;;;;;;;0.10;0.10;;;8.20;99.90;;;;;;5067421;28;20028;-70
2021/10/17 05:16:26;;;;;;;0.25;0.25;;;8.10;99.90;;;;;;5067326;28;20542;-69
2021/10/17 05:18:51;;;;;;;0.52;0.52;;;8.10;99.90;;;;;;5067938;28;20023;-70
2021/10/17 05:21:17;;;;;;;0.05;0.05;;;8.10;99.90;;;;;;5067248;28;20009;-69
2021/10/17 05:23:42;;;;;;;4.60;2.05;;;8.10;99.90;;;;;;5063607;28;20335;-70
2021/10/17 05:26:08;;;;;;;0.85;0.65;;;8.10;99.90;;;;;;5067026;28;20039;-70
2021/10/17 05:28:34;;;;;;;0.10;0.10;;;8.10;99.90;;;;;;5067780;28;20074;-70
2021/10/17 05:31:00;;;;;;;0.00;0.00;;;8.10;99.90;;;;;;5066328;28;20035;-70
2021/10/17 05:33:27;;;;;;;0.10;0.10;;;8.20;99.90;;;;;;5066743;28;20048;-69
2021/10/17 05:35:52;;;;;;;0.00;0.00;;;8.20;99.90;;;;;;5067223;28;20100;-69
2021/10/17 05:38:18;;;;;;;0.30;0.30;;;8.20;99.90;;;;;;5067177;28;20477;-70
2021/10/17 05:40:43;;;;;;;0.15;0.15;;;8.30;99.90;;;;;;5064685;28;20017;-70
2021/10/17 05:43:09;;;;;;;28.85;1.95;;;8.30;99.90;;;;;;5060979;28;20029;-69
2021/10/17 05:45:35;;;;;;;0.52;0.52;;;8.40;99.90;;;;;;5067344;28;20432;-70
2021/10/17 05:48:00;;;;;;;0.50;0.50;;;8.50;99.90;;;;;;5066730;28;20024;-69
2021/10/17 05:50:26;;;;;;;4.50;0.52;;;8.60;99.90;;;;;;5066529;28;20985;-70
2021/10/17 05:52:51;;;;;;;0.32;0.32;;;8.70;99.90;;;;;;5046885;28;20036;-70
2021/10/17 05:55:17;;;;;;;0.22;0.17;;;8.80;99.90;;;;;;5066436;28;20355;-70
2021/10/17 05:57:42;;;;;;;0.10;0.10;;;8.90;99.90;;;;;;5066562;28;20680;-70
2021/10/17 06:00:08;;;;;;;6.82;1.38;;;9.00;99.90;;;;;;5066522;28;20078;-70
2021/10/17 06:02:34;;;;;;;4.57;1.02;;;9.10;99.90;;;;;;5060767;28;20032;-69
2021/10/17 06:04:59;;;;;;;0.38;0.38;;;9.10;99.90;;;;;;5066307;28;20120;-70
2021/10/17 06:07:25;;;;;;;0.20;0.20;;;9.20;99.90;;;;;;5066369;28;20035;-70
2021/10/17 06:09:51;;;;;;;0.10;0.10;;;9.20;99.90;;;;;;5066933;28;20031;-69
2021/10/17 06:12:16;;;;;;;0.52;0.45;;;9.30;99.90;;;;;;5066494;28;20112;-69
2021/10/17 06:14:42;;;;;;;0.38;0.38;;;9.30;99.90;;;;;;5053935;28;20122;-69
2021/10/17 06:17:07;;;;;;;0.10;0.10;;;9.30;99.90;;;;;;5066232;28;20024;-69
2021/10/17 06:19:33;;;;;;;0.77;0.63;;;9.40;99.90;;;;;;5067299;28;20050;-69
2021/10/17 06:22:03;;;;;;;1.15;1.05;;;9.40;99.90;;;;;;5066764;28;20137;-70
2021/10/17 06:24:30;;;;;;;0.10;0.10;;;9.50;99.90;;;;;;5066757;28;20291;-69
2021/10/17 06:26:56;;;;;;;0.10;0.10;;;9.50;99.90;;;;;;5065485;28;20440;-70
2021/10/17 06:29:21;;;;;;;0.65;0.65;;;9.50;99.90;;;;;;5067183;28;20063;-69
2021/10/17 06:31:46;;;;;;;0.70;0.17;;;9.50;99.90;;;;;;5066713;28;20088;-69
2021/10/17 06:34:12;;;;;;;0.05;0.05;;;9.60;99.90;;;;;;5066681;28;20086;-70
2021/10/17 06:36:37;;;;;;;8.77;1.25;;;9.60;99.90;;;;;;5057174;28;20107;-69
2021/10/17 06:39:03;;;;;;;0.47;0.22;;;9.70;99.90;;;;;;5066588;28;20013;-70
2021/10/17 06:41:28;;;;;;;0.93;0.90;;;9.70;99.90;;;;;;5066304;28;20095;-69
2021/10/17 06:43:54;;;;;;;0.08;0.08;;;9.70;99.90;;;;;;5060898;28;20035;-69
2021/10/17 06:46:19;;;;;;;0.08;0.08;;;9.80;99.90;;;;;;5051953;28;20396;-70
2021/10/17 06:48:45;;;;;;;1.73;0.98;;;9.80;99.90;;;;;;5065394;28;20025;-70
2021/10/17 06:51:10;;;;;;;0.03;0.03;;;9.80;99.90;;;;;;5065885;28;20049;-69
2021/10/17 06:53:36;;;;;;;0.32;0.32;;;9.80;99.90;;;;;;5066540;28;20020;-70
2021/10/17 06:56:01;;;;;;;1.98;0.80;;;9.90;99.90;;;;;;5065329;28;20174;-70
2021/10/17 06:58:27;;;;;;;0.52;0.52;;;9.90;99.90;;;;;;5066273;28;20029;-70
2021/10/17 07:00:52;;;;;;;0.10;0.10;;;10.00;99.90;;;;;;5066517;28;20538;-69
2021/10/17 07:03:17;;;;;;;0.65;0.43;;;10.00;99.60;;;;;;5061546;28;20056;-69
2021/10/17 07:05:43;;;;;;;0.40;0.40;;;10.10;99.70;;;;;;5066180;28;20632;-70
2021/10/17 07:08:08;;;;;;;0.30;0.30;;;10.10;99.30;;;;;;5064892;28;20033;-70
2021/10/17 07:10:34;;;;;;;0.43;0.43;;;10.10;99.90;;;;;;5066957;28;20371;-70
2021/10/17 07:12:59;;;;;;;0.30;0.30;;;10.10;99.00;;;;;;5066017;28;20112;-70
2021/10/17 07:15:25;;;;;;;0.10;0.10;;;10.20;98.50;;;;;;5065947;28;20031;-70
2021/10/17 07:17:50;;;;;;;0.55;0.20;;;10.20;97.90;;;;;;5064334;28;20481;-69
2021/10/17 07:20:16;;;;;;;0.38;0.38;;;10.30;98.40;;;;;;5058577;28;20024;-70
2021/10/17 07:22:41;;;;;;;0.10;0.10;;;10.30;98.70;;;;;;5065923;28;20057;-70
2021/10/17 07:25:07;;;;;;;3.53;0.77;;;10.40;97.70;;;;;;5066320;28;20068;-70
2021/10/17 07:27:32;;;;;;;2.42;1.02;;;10.50;97.40;;;;;;5066217;28;20078;-70
2021/10/17 07:29:58;;;;;;;3.03;0.88;;;10.50;97.20;;;;;;5059674;28;20029;-70
2021/10/17 07:32:23;;;;;;;0.00;0.00;;;10.60;97.20;;;;;;5064530;28;20062;-71
2021/10/17 07:34:49;;;;;;;0.08;0.08;;;10.60;96.30;;;;;;5066472;28;20016;-70
2021/10/17 07:37:14;;;;;;;0.68;0.52;;;10.60;96.40;;;;;;5065897;28;20037;-70
2021/10/17 07:39:40;;;;;;;3.63;0.63;;;10.70;95.90;;;;;;5065219;28;20024;-70
2021/10/17 07:42:05;;;;;;;0.13;0.13;;;10.70;95.50;;;;;;5066435;28;20035;-70
2021/10/17 07:44:31;;;;;;;0.13;0.13;;;10.70;95.80;;;;;;5065823;28;20023;-70
2021/10/17 07:46:58;;;;;;;0.40;0.40;;;10.80;95.20;;;;;;5065570;28;20285;-69
2021/10/17 07:49:23;;;;;;;0.32;0.32;;;10.80;94.80;;;;;;5066385;28;20027;-69
2021/10/17 07:51:49;;;;;;;0.13;0.13;;;10.80;94.70;;;;;;5065743;28;20399;-69
2021/10/17 07:54:14;;;;;;;0.10;0.10;;;10.70;94.40;;;;;;5065048;28;20380;-70
2021/10/17 07:56:39;;;;;;;0.08;0.08;;;10.70;94.60;;;;;;5065853;28;20139;-70
2021/10/17 07:59:05;;;;;;;0.00;0.00;;;10.80;94.60;;;;;;5066274;28;20471;-70
2021/10/17 08:01:31;;;;;;;0.38;0.38;;;10.90;94.40;;;;;;5068418;28;20120;-70
2021/10/17 08:03:56;;;;;;;0.20;0.20;;;10.90;94.50;;;;;;5069072;28;20040;-69
2021/10/17 08:06:21;;;;;;;6.65;1.23;;;10.90;94.20;;;;;;5069151;28;20555;-70
2021/10/17 08:08:47;;;;;;;5.00;0.68;;;11.00;94.30;;;;;;5068992;28;20021;-70
2021/10/17 08:11:13;;;;;;;2.50;0.73;;;11.00;94.20;;;;;;5068589;28;20447;-70
2021/10/17 08:13:38;;;;;;;0.43;0.43;;;11.10;94.10;;;;;;5065893;28;20051;-69
2021/10/17 08:16:04;;;;;;;0.88;0.80;;;11.10;94.10;;;;;;5066342;28;20463;-70
2021/10/17 08:18:30;;;;;;;0.20;0.20;;;11.20;93.30;;;;;;5068363;28;20016;-70
2021/10/17 08:20:55;;;;;;;0.32;0.32;;;11.30;93.10;;;;;;5068571;28;20039;-69
2021/10/17 08:23:21;;;;;;;0.30;0.30;;;11.30;93.30;;;;;;5068877;28;20565;-69
2021/10/17 08:25:47;;;;;;;0.10;0.10;;;11.30;92.50;;;;;;5054342;28;20067;-69
2021/10/17 08:28:13;;;;;;;3.53;1.05;;;11.40;92.50;;;;;;5068532;28;20130;-69
2021/10/17 08:30:39;;;;;;;0.55;0.55;;;11.40;92.60;;;;;;5068878;28;20074;-69
2021/10/17 08:33:04;;;;;;;0.50;0.50;;;11.40;92.60;;;;;;5068736;28;20414;-70
2021/10/17 08:35:30;;;;;;;0.17;0.17;;;11.50;92.20;;;;;;5066529;28;20128;-69
2021/10/17 08:37:56;;;;;;;1.83;1.10;;;11.50;91.70;;;;;;5068457;28;20024;-69
2021/10/17 08:40:21;;;;;;;0.20;0.20;;;11.60;91.30;;;;;;5068550;28;20107;-70
2021/10/17 08:42:47;;;;;;;2.40;0.68;;;11.70;91.20;;;;;;5068497;28;20028;-70
2021/10/17 08:45:12;;;;;;;0.45;0.45;;;11.60;91.20;;;;;;5063937;28;20032;-70
2021/10/17 08:47:38;;;;;;;0.65;0.63;;;11.60;92.10;;;;;;5058893;28;20097;-69
2021/10/17 08:50:05;;;;;;;0.30;0.30;;;11.60;92.10;;;;;;5068219;28;20096;-69
2021/10/17 08:52:31;;;;;;;0.30;0.30;;;11.60;91.70;;;;;;5067805;28;20028;-70
2021/10/17 08:54:56;;;;;;;0.80;0.80;;;11.60;92.50;;;;;;5067844;28;20031;-70
2021/10/17 08:57:22;;;;;;;0.10;0.10;;;11.60;92.00;;;;;;5061984;28;20029;-70
2021/10/17 08:59:49;;;;;;;0.35;0.35;;;11.70;91.80;;;;;;5067842;28;20008;-69
2021/10/17 09:02:16;;;;;;;0.00;0.00;;;11.70;91.70;;;;;;5068139;28;20021;-70
2021/10/17 09:04:42;;;;;;;1.80;0.45;;;11.80;91.70;;;;;;5067997;28;20024;-70
2021/10/17 09:07:19;;;;;;;0.32;0.32;;;11.80;91.10;;;;;;5057429;28;20033;-70
2021/10/17 09:10:06;;;;;;;0.10;0.10;;;11.90;91.40;;;;;;5065957;28;20594;-70
2021/10/17 09:12:33;;;;;;;0.15;0.15;;;12.00;90.80;;;;;;5067614;28;20060;-69
2021/10/17 09:15:25;;;;;;;0.35;0.35;;;12.10;90.70;;;;;;5067935;28;20074;-70
2021/10/17 09:18:05;;;;;;;0.08;0.08;;;12.20;90.20;;;;;;5062156;28;20431;-69
2021/10/17 09:20:33;;;;;;;0.00;0.00;;;12.40;90.00;;;;;;5067510;28;20020;-70
2021/10/17 09:23:00;;;;;;;0.98;0.65;;;12.70;89.30;;;;;;5067475;28;20317;-69
2021/10/17 09:25:31;;;;;;;0.50;0.50;;;12.90;86.90;;;;;;5067164;28;20074;-70
2021/10/17 09:27:57;;;;;;;0.57;0.32;;;13.10;84.20;;;;;;5061219;28;20079;-69
2021/10/17 09:30:23;;;;;;;0.40;0.40;;;13.10;84.20;;;;;;5061427;28;20035;-70
2021/10/17 09:32:49;;;;;;;0.10;0.10;;;13.10;83.00;;;;;;5068261;28;20113;-70
2021/10/17 09:35:14;;;;;;;0.50;0.50;;;13.10;81.90;;;;;;5067448;28;20186;-70
2021/10/17 09:37:41;;;;;;;0.10;0.10;;;13.00;82.30;;;;;;5067933;28;20030;-69
2021/10/17 09:40:21;;;;;;;0.52;0.52;;;12.90;82.40;;;;;;5067030;28;20513;-70
2021/10/17 09:43:09;;;;;;;0.20;0.20;;;12.80;83.70;;;;;;5067490;28;20050;-70
2021/10/17 09:45:36;;;;;;;1.30;0.35;;;12.90;83.00;;;;;;5067444;28;20036;-70
2021/10/17 09:48:02;;;;;;;0.10;0.10;;;12.80;83.20;;;;;;5067654;28;20377;-69
2021/10/17 09:50:27;;;;;;;0.90;0.75;;;12.80;83.50;;;;;;5067070;28;20035;-69
2021/10/17 09:53:03;;;;;;;0.35;0.35;;;12.80;83.50;;;;;;5067910;28;20025;-70
2021/10/17 09:55:29;;;;;;;0.10;0.10;;;12.70;84.40;;;;;;5067099;28;20028;-70
2021/10/17 09:57:55;;;;;;;0.28;0.28;;;12.70;85.10;;;;;;5059524;28;20029;-69
2021/10/17 10:00:21;;;;;;;0.20;0.20;;;12.70;85.90;;;;;;5067746;28;20032;-70
2021/10/17 10:02:51;;;;;;;2.42;1.25;;;12.90;86.20;;;;;;5067596;28;20060;-70
2021/10/17 10:05:22;;;;;;;1.53;0.67;;;13.00;84.90;;;;;;5066645;28;20028;-70
2021/10/17 10:07:49;;;;;;;0.65;0.65;;;13.10;84.60;;;;;;5064107;28;20283;-70
2021/10/17 10:10:17;;;;;;;1.33;0.77;;;13.20;85.10;;;;;;5066127;28;20047;-70
2021/10/17 10:12:45;;;;;;;2.30;1.15;;;13.30;84.50;;;;;;5066139;28;20086;-69
2021/10/17 10:15:11;;;;;;;10.43;1.25;;;13.30;83.50;;;;;;5067148;28;20051;-70
2021/10/17 10:17:38;;;;;;;2.80;1.48;;;13.40;83.20;;;;;;5067487;28;20029;-70
2021/10/17 10:20:04;;;;;;;1.08;1.02;;;13.40;83.80;;;;;;5067241;28;20016;-70
2021/10/17 10:22:31;;;;;;;0.28;0.28;;;13.50;83.00;;;;;;5062604;28;20044;-70
2021/10/17 10:24:58;;;;;;;0.30;0.13;;;13.70;82.40;;;;;;5057047;28;20025;-70
2021/10/17 10:27:24;;;;;;;3.20;1.10;;;13.70;82.50;;;;;;5066766;28;20036;-70
2021/10/17 10:29:49;;;;;;;0.75;0.60;;;13.80;82.70;;;;;;5066638;28;20032;-70
2021/10/17 10:32:25;;;;;;;0.30;0.30;;;13.80;82.50;;;;;;5066537;28;20029;-70
2021/10/17 10:34:52;;;;;;;1.02;0.45;;;13.80;83.00;;;;;;5058219;28;20104;-69
2021/10/17 10:37:20;;;;;;;0.47;0.47;;;13.90;83.10;;;;;;5065239;28;20021;-69
2021/10/17 10:40:07;;;;;;;2.85;1.02;;;14.10;84.00;;;;;;5066923;28;20032;-70
2021/10/17 10:42:41;;;;;;;0.50;0.30;;;14.20;81.90;;;;;;5066915;28;20071;-69
2021/10/17 10:45:32;;;;;;;1.02;0.93;;;14.30;82.70;;;;;;5066338;28;20406;-69
2021/10/17 10:48:10;;;;;;;0.03;0.03;;;14.40;83.50;;;;;;5066277;28;20025;-69
2021/10/17 10:50:53;;;;;;;0.70;0.70;;;14.50;82.80;;;;;;5066962;28;20032;-71
2021/10/17 10:53:51;;;;;;;0.95;0.90;;;14.40;82.30;;;;;;5066824;28;20086;-70
2021/10/17 10:56:44;;;;;;;0.10;0.10;;;14.30;83.20;;;;;;5066642;28;20074;-70
2021/10/17 10:59:10;;;;;;;0.43;0.43;;;14.00;84.60;;;;;;5057718;28;20024;-69
2021/10/17 11:01:52;;;;;;;0.25;0.25;;;13.90;85.30;;;;;;5067276;28;20123;-70
2021/10/17 11:04:36;;;;;;;;;;;13.80;85.10;;;;;;5053589;28;20029;-70
2021/10/17 11:07:27;;;;;;;0.15;0.15;;;13.80;85.80;;;;;;5056155;28;19930;-70
2021/10/17 11:09:54;;;;;;;1.77;0.73;;;13.80;85.50;;;;;;5067073;28;20463;-70
2021/10/17 11:12:42;;;;;;;1.02;0.77;;;13.90;85.80;;;;;;5066747;28;20471;-70
2021/10/17 11:15:11;;;;;;;0.85;0.30;;;14.00;85.60;;;;;;5060013;28;20032;-69
2021/10/17 11:17:37;;;;;;;0.43;0.38;;;14.00;86.00;;;;;;5066760;28;20996;-70
2021/10/17 11:20:05;;;;;;;0.03;0.03;;;14.00;86.80;;;;;;5066727;28;20017;-70
2021/10/17 11:22:34;;;;;;;3.03;1.55;;;14.10;85.60;;;;;;5065938;28;20080;-70
2021/10/17 11:25:00;;;;;;;1.45;0.77;;;14.20;85.00;;;;;;5055856;28;20051;-70
2021/10/17 11:27:26;;;;;;;1.55;1.23;;;14.40;84.60;;;;;;5063191;28;20498;-70
2021/10/17 11:29:51;;;;;;;2.20;0.90;;;14.50;84.40;;;;;;5066178;28;20025;-70
2021/10/17 11:32:17;;;;;;;0.77;0.73;;;14.60;84.40;;;;;;5065882;28;20064;-70
2021/10/17 11:34:54;;;;;;;0.85;0.85;;;14.60;83.80;;;;;;5068078;28;20307;-70
2021/10/17 11:37:25;;;;;;;3.47;0.90;;;14.50;84.70;;;;;;5066418;28;20024;-70
2021/10/17 11:40:03;;;;;;;0.25;0.25;;;14.40;85.30;;;;;;5070372;28;20052;-70
2021/10/17 11:42:41;;;;;;;0.77;0.43;;;14.40;85.30;;;;;;5069586;28;20016;-69
2021/10/17 11:45:14;;;;;;;2.20;0.85;;;14.40;85.30;;;;;;5059312;28;20502;-69
2021/10/17 11:47:49;;;;;;;1.65;1.27;;;14.40;86.00;;;;;;5069985;28;20111;-69
2021/10/17 11:50:30;;;;;;;0.35;0.35;;;14.30;85.70;;;;;;5061046;28;20191;-70
2021/10/17 11:52:57;;;;;;;12.60;0.90;;;14.30;85.10;;;;;;5069585;28;20032;-70
2021/10/17 11:55:27;;;;;;;0.32;0.32;;;14.30;86.50;;;;;;5069146;28;20017;-69
2021/10/17 11:57:53;;;;;;;0.20;0.20;;;14.30;85.70;;;;;;5070022;28;20475;-69
2021/10/17 12:00:26;;;;;;;4.03;1.10;;;14.20;86.10;;;;;;5069139;28;20017;-69
2021/10/17 12:02:52;;;;;;;0.50;0.50;;;14.20;87.60;;;;;;5069711;28;20383;-69
2021/10/17 12:05:20;;;;;;;0.52;0.43;;;14.20;87.10;;;;;;5068459;28;20032;-69
2021/10/17 12:07:46;;;;;;;1.42;1.02;;;14.30;87.40;;;;;;5069547;28;20028;-69
2021/10/17 12:10:12;;;;;;;0.30;0.30;;;14.40;87.00;;;;;;5053918;28;20086;-68
2021/10/17 12:12:42;;;;;;;0.75;0.32;;;14.60;86.20;;;;;;5065091;28;20032;-69
2021/10/17 12:15:10;;;;;;;0.57;0.57;;;14.70;85.70;;;;;;5064935;28;20490;-69
2021/10/17 12:17:36;;;;;;;0.40;0.40;;;14.70;86.10;;;;;;5066441;28;20048;-69
2021/10/17 12:20:10;;;;;;;0.00;0.00;;;14.70;86.40;;;;;;5058791;28;20447;-69
2021/10/17 12:22:45;;;;;;;1.80;0.45;;;14.70;87.90;;;;;;5058825;28;20053;-75
2021/10/17 12:25:13;;;;;;;0.03;0.03;;;14.50;86.70;;;;;;5056775;28;20035;-69
2021/10/17 12:27:43;;;;;;;1.27;0.75;;;14.50;86.30;;;;;;5066585;28;20035;-69
2021/10/17 12:30:11;;;;;;;0.32;0.32;;;14.30;87.30;;;;;;5069503;28;20020;-69
2021/10/17 12:32:57;;;;;;;0.10;0.10;;;14.30;87.90;;;;;;5069778;28;20033;-70
2021/10/17 12:35:30;;;;;;;0.28;0.20;;;14.20;88.00;;;;;;5070132;28;20070;-69
2021/10/17 12:38:13;;;;;;;3.88;1.48;;;14.20;88.80;;;;;;5068410;28;20032;-69
2021/10/17 12:40:58;;;;;;;0.55;0.55;;;14.20;88.90;;;;;;5069724;28;20328;-70
2021/10/17 12:43:47;;;;;;;0.55;0.55;;;14.20;89.30;;;;;;5064751;28;20028;-70
2021/10/17 12:46:18;;;;;;;1.27;0.90;;;14.20;89.40;;;;;;5068659;28;20103;-69
2021/10/17 12:48:52;;;;;;;0.32;0.32;;;14.20;89.10;;;;;;5069378;28;20040;-70
2021/10/17 12:51:32;;;;;;;0.20;0.20;;;14.20;90.00;;;;;;5066462;28;20111;-69